sensor_id;sensor_type;location;lat;lon;timestamp;pressure;altitude;pressure_sealevel;temperature;humidity
12471;BME280;36499;46.484;13.832;2022-12-20T00:01:19;94294.22;;;-1.18;78.98
12471;BME280;36499;46.484;13.832;2022-12-20T00:03:48;94298.19;;;-1.14;78.67
12471;BME280;36499;46.484;13.832;2022-12-20T00:06:17;94291.31;;;-1.14;78.09
12471;BME280;36499;46.484;13.832;2022-12-20T00:08:45;94284.59;;;-1.15;78.48
12471;BME280;36499;46.484;13.832;2022-12-20T00:11:13;94270.25;;;-1.17;78.38
12471;BME280;36499;46.484;13.832;2022-12-20T00:13:40;94277.94;;;-1.17;78.26
12471;BME280;36499;46.484;13.832;2022-12-20T00:16:10;94278.88;;;-1.18;78.13
12471;BME280;36499;46.484;13.832;2022-12-20T00:18:40;94271.41;;;-1.21;77.85
12471;BME280;36499;46.484;13.832;2022-12-20T00:21:10;94263.97;;;-1.24;78.04
12471;BME280;36499;46.484;13.832;2022-12-20T00:23:39;94263.63;;;-1.31;78.83
12471;BME280;36499;46.484;13.832;2022-12-20T00:26:09;94260.34;;;-1.33;78.81
12471;BME280;36499;46.484;13.832;2022-12-20T00:28:38;94271.28;;;-1.31;79.59
12471;BME280;36499;46.484;13.832;2022-12-20T00:31:07;94264.31;;;-1.29;79.73
12471;BME280;36499;46.484;13.832;2022-12-20T00:33:36;94263.75;;;-1.21;79.15
12471;BME280;36499;46.484;13.832;2022-12-20T00:36:07;94265.72;;;-1.14;79.11
12471;BME280;36499;46.484;13.832;2022-12-20T00:38:35;94268.88;;;-1.10;79.58
12471;BME280;36499;46.484;13.832;2022-12-20T00:41:04;94258.53;;;-1.09;79.09
12471;BME280;36499;46.484;13.832;2022-12-20T00:43:32;94257.63;;;-1.08;79.10
12471;BME280;36499;46.484;13.832;2022-12-20T00:46:00;94259.03;;;-1.04;79.69
12471;BME280;36499;46.484;13.832;2022-12-20T00:48:29;94257.16;;;-1.02;79.47
12471;BME280;36499;46.484;13.832;2022-12-20T00:50:58;94259.47;;;-0.99;79.33
12471;BME280;36499;46.484;13.832;2022-12-20T00:53:28;94266.34;;;-0.99;79.90
12471;BME280;36499;46.484;13.832;2022-12-20T00:55:56;94259.13;;;-1.05;80.10
12471;BME280;36499;46.484;13.832;2022-12-20T00:58:24;94260.41;;;-1.11;80.34
12471;BME280;36499;46.484;13.832;2022-12-20T01:00:52;94259.00;;;-1.26;81.43
12471;BME280;36499;46.484;13.832;2022-12-20T01:03:20;94254.56;;;-1.24;80.73
12471;BME280;36499;46.484;13.832;2022-12-20T01:05:51;94257.44;;;-1.28;81.09
12471;BME280;36499;46.484;13.832;2022-12-20T01:08:19;94258.50;;;-1.31;81.16
12471;BME280;36499;46.484;13.832;2022-12-20T01:10:58;94254.53;;;-1.35;80.63
12471;BME280;36499;46.484;13.832;2022-12-20T01:13:26;94248.50;;;-1.34;81.11
12471;BME280;36499;46.484;13.832;2022-12-20T01:15:54;94245.81;;;-1.32;80.83
12471;BME280;36499;46.484;13.832;2022-12-20T01:18:21;94248.50;;;-1.34;80.63
12471;BME280;36499;46.484;13.832;2022-12-20T01:20:48;94247.69;;;-1.34;80.45
12471;BME280;36499;46.484;13.832;2022-12-20T01:23:15;94240.13;;;-1.36;80.68
12471;BME280;36499;46.484;13.832;2022-12-20T01:25:42;94236.16;;;-1.40;80.88
12471;BME280;36499;46.484;13.832;2022-12-20T01:28:11;94234.06;;;-1.46;80.79
12471;BME280;36499;46.484;13.832;2022-12-20T01:30:39;94234.88;;;-1.46;81.01
12471;BME280;36499;46.484;13.832;2022-12-20T01:33:07;94225.47;;;-1.45;80.99
12471;BME280;36499;46.484;13.832;2022-12-20T01:35:34;94216.59;;;-1.52;80.54
12471;BME280;36499;46.484;13.832;2022-12-20T01:38:01;94220.44;;;-1.58;79.61
12471;BME280;36499;46.484;13.832;2022-12-20T01:40:30;94218.91;;;-1.71;79.57
12471;BME280;36499;46.484;13.832;2022-12-20T01:42:58;94209.59;;;-1.72;79.86
12471;BME280;36499;46.484;13.832;2022-12-20T01:45:29;94204.72;;;-1.75;79.89
12471;BME280;36499;46.484;13.832;2022-12-20T01:47:58;94207.25;;;-1.75;79.55
12471;BME280;36499;46.484;13.832;2022-12-20T01:50:26;94215.84;;;-1.76;78.56
12471;BME280;36499;46.484;13.832;2022-12-20T01:52:53;94225.84;;;-1.73;78.98
12471;BME280;36499;46.484;13.832;2022-12-20T01:55:24;94232.00;;;-1.76;78.90
12471;BME280;36499;46.484;13.832;2022-12-20T01:57:57;94224.06;;;-1.84;78.43
12471;BME280;36499;46.484;13.832;2022-12-20T02:00:27;94223.03;;;-1.81;78.54
12471;BME280;36499;46.484;13.832;2022-12-20T02:02:59;94217.22;;;-1.83;78.78
12471;BME280;36499;46.484;13.832;2022-12-20T02:05:32;94210.16;;;-1.80;79.16
12471;BME280;36499;46.484;13.832;2022-12-20T02:07:59;94210.16;;;-1.80;78.18
12471;BME280;36499;46.484;13.832;2022-12-20T02:10:39;94208.00;;;-1.86;77.65
12471;BME280;36499;46.484;13.832;2022-12-20T02:13:30;94209.53;;;-1.95;78.02
12471;BME280;36499;46.484;13.832;2022-12-20T02:16:03;94200.31;;;-1.97;78.59
12471;BME280;36499;46.484;13.832;2022-12-20T02:18:41;94204.41;;;-1.95;78.78
12471;BME280;36499;46.484;13.832;2022-12-20T02:21:29;94200.13;;;-1.94;79.12
12471;BME280;36499;46.484;13.832;2022-12-20T02:24:34;94192.44;;;-1.94;78.63
12471;BME280;36499;46.484;13.832;2022-12-20T02:30:27;94182.66;;;-2.00;77.81
12471;BME280;36499;46.484;13.832;2022-12-20T02:33:01;94172.66;;;-2.03;77.89
12471;BME280;36499;46.484;13.832;2022-12-20T02:35:32;94177.78;;;-2.03;77.69
12471;BME280;36499;46.484;13.832;2022-12-20T02:38:02;94176.47;;;-2.09;77.28
12471;BME280;36499;46.484;13.832;2022-12-20T02:40:38;94182.53;;;-2.10;76.98
12471;BME280;36499;46.484;13.832;2022-12-20T02:43:09;94176.81;;;-2.13;77.59
12471;BME280;36499;46.484;13.832;2022-12-20T02:46:01;94172.84;;;-2.17;77.67
12471;BME280;36499;46.484;13.832;2022-12-20T02:48:32;94174.47;;;-2.16;76.89
12471;BME280;36499;46.484;13.832;2022-12-20T02:51:01;94172.03;;;-2.18;77.19
12471;BME280;36499;46.484;13.832;2022-12-20T02:53:31;94168.66;;;-2.18;76.88
12471;BME280;36499;46.484;13.832;2022-12-20T02:56:06;94165.97;;;-2.17;77.76
12471;BME280;36499;46.484;13.832;2022-12-20T02:58:41;94165.66;;;-2.12;77.13
12471;BME280;36499;46.484;13.832;2022-12-20T03:01:20;94157.19;;;-2.13;77.12
12471;BME280;36499;46.484;13.832;2022-12-20T03:03:50;94162.28;;;-2.13;77.25
12471;BME280;36499;46.484;13.832;2022-12-20T03:06:19;94162.66;;;-2.17;77.15
12471;BME280;36499;46.484;13.832;2022-12-20T03:08:46;94156.22;;;-2.23;75.95
12471;BME280;36499;46.484;13.832;2022-12-20T03:11:13;94157.38;;;-2.27;76.02
12471;BME280;36499;46.484;13.832;2022-12-20T03:13:41;94155.94;;;-2.31;76.88
12471;BME280;36499;46.484;13.832;2022-12-20T03:16:08;94147.06;;;-2.49;77.28
12471;BME280;36499;46.484;13.832;2022-12-20T03:18:37;94148.78;;;-2.50;77.22
12471;BME280;36499;46.484;13.832;2022-12-20T03:21:05;94148.69;;;-2.48;77.31
12471;BME280;36499;46.484;13.832;2022-12-20T03:23:32;94140.09;;;-2.47;76.82
12471;BME280;36499;46.484;13.832;2022-12-20T03:26:00;94138.47;;;-2.48;76.70
12471;BME280;36499;46.484;13.832;2022-12-20T03:28:27;94128.38;;;-2.50;77.46
12471;BME280;36499;46.484;13.832;2022-12-20T03:30:54;94121.03;;;-2.54;77.95
12471;BME280;36499;46.484;13.832;2022-12-20T03:33:21;94117.13;;;-2.47;78.46
12471;BME280;36499;46.484;13.832;2022-12-20T03:35:49;94113.22;;;-2.40;78.66
12471;BME280;36499;46.484;13.832;2022-12-20T03:38:16;94110.91;;;-2.32;78.55
12471;BME280;36499;46.484;13.832;2022-12-20T03:40:43;94107.22;;;-2.28;78.69
12471;BME280;36499;46.484;13.832;2022-12-20T03:43:10;94097.72;;;-2.26;77.82
12471;BME280;36499;46.484;13.832;2022-12-20T03:45:37;94091.78;;;-2.26;78.01
12471;BME280;36499;46.484;13.832;2022-12-20T03:48:04;94093.75;;;-2.30;77.86
12471;BME280;36499;46.484;13.832;2022-12-20T03:50:32;94092.94;;;-2.30;77.10
12471;BME280;36499;46.484;13.832;2022-12-20T03:53:00;94091.44;;;-2.33;77.90
12471;BME280;36499;46.484;13.832;2022-12-20T03:55:27;94088.16;;;-2.35;77.36
12471;BME280;36499;46.484;13.832;2022-12-20T03:57:55;94092.81;;;-2.40;76.76
12471;BME280;36499;46.484;13.832;2022-12-20T04:00:22;94095.78;;;-2.46;75.98
12471;BME280;36499;46.484;13.832;2022-12-20T04:02:49;94097.41;;;-2.45;76.27
12471;BME280;36499;46.484;13.832;2022-12-20T04:05:17;94097.75;;;-2.50;76.21
12471;BME280;36499;46.484;13.832;2022-12-20T04:07:44;94108.19;;;-2.53;76.96
12471;BME280;36499;46.484;13.832;2022-12-20T04:10:12;94106.91;;;-2.47;76.70
12471;BME280;36499;46.484;13.832;2022-12-20T04:12:39;94104.34;;;-2.47;77.20
12471;BME280;36499;46.484;13.832;2022-12-20T04:15:08;94103.44;;;-2.46;76.96
12471;BME280;36499;46.484;13.832;2022-12-20T04:17:35;94100.56;;;-2.42;77.59
12471;BME280;36499;46.484;13.832;2022-12-20T04:20:03;94101.16;;;-2.38;76.99
12471;BME280;36499;46.484;13.832;2022-12-20T04:22:44;94096.53;;;-2.33;77.37
12471;BME280;36499;46.484;13.832;2022-12-20T04:25:13;94099.09;;;-2.33;76.86
12471;BME280;36499;46.484;13.832;2022-12-20T04:27:40;94092.59;;;-2.37;76.45
12471;BME280;36499;46.484;13.832;2022-12-20T04:30:09;94101.59;;;-2.44;77.44
12471;BME280;36499;46.484;13.832;2022-12-20T04:32:37;94098.56;;;-2.49;77.76
12471;BME280;36499;46.484;13.832;2022-12-20T04:35:06;94094.50;;;-2.52;78.73
12471;BME280;36499;46.484;13.832;2022-12-20T04:37:33;94096.78;;;-2.60;80.24
12471;BME280;36499;46.484;13.832;2022-12-20T04:40:00;94095.19;;;-2.50;79.07
12471;BME280;36499;46.484;13.832;2022-12-20T04:42:28;94091.22;;;-2.54;79.08
12471;BME280;36499;46.484;13.832;2022-12-20T04:44:55;94095.69;;;-2.45;79.16
12471;BME280;36499;46.484;13.832;2022-12-20T04:47:22;94094.78;;;-2.44;78.26
12471;BME280;36499;46.484;13.832;2022-12-20T04:49:49;94086.28;;;-2.44;78.33
12471;BME280;36499;46.484;13.832;2022-12-20T04:52:16;94089.53;;;-2.42;78.67
12471;BME280;36499;46.484;13.832;2022-12-20T04:55:01;94083.03;;;-2.46;79.14
12471;BME280;36499;46.484;13.832;2022-12-20T04:57:29;94075.25;;;-2.45;78.92
12471;BME280;36499;46.484;13.832;2022-12-20T04:59:56;94080.97;;;-2.41;78.64
12471;BME280;36499;46.484;13.832;2022-12-20T05:02:23;94070.78;;;-2.30;80.31
12471;BME280;36499;46.484;13.832;2022-12-20T05:04:50;94070.13;;;-2.21;79.72
12471;BME280;36499;46.484;13.832;2022-12-20T05:07:18;94067.44;;;-2.19;79.27
12471;BME280;36499;46.484;13.832;2022-12-20T05:09:45;94061.50;;;-2.20;78.97
12471;BME280;36499;46.484;13.832;2022-12-20T05:12:12;94060.94;;;-2.23;80.10
12471;BME280;36499;46.484;13.832;2022-12-20T05:14:40;94073.38;;;-2.19;79.83
12471;BME280;36499;46.484;13.832;2022-12-20T05:17:07;94072.22;;;-2.15;79.80
12471;BME280;36499;46.484;13.832;2022-12-20T05:19:35;94078.72;;;-2.11;79.41
12471;BME280;36499;46.484;13.832;2022-12-20T05:22:02;94072.88;;;-2.24;77.50
12471;BME280;36499;46.484;13.832;2022-12-20T05:24:46;94064.63;;;-2.27;79.47
12471;BME280;36499;46.484;13.832;2022-12-20T05:27:45;94063.63;;;-2.25;80.73
12471;BME280;36499;46.484;13.832;2022-12-20T05:30:14;94060.94;;;-2.12;80.98
12471;BME280;36499;46.484;13.832;2022-12-20T05:32:41;94056.00;;;-2.03;80.68
12471;BME280;36499;46.484;13.832;2022-12-20T05:35:09;94058.28;;;-2.22;78.70
12471;BME280;36499;46.484;13.832;2022-12-20T05:37:36;94049.22;;;-2.15;79.46
12471;BME280;36499;46.484;13.832;2022-12-20T05:40:05;94039.59;;;-2.11;79.22
12471;BME280;36499;46.484;13.832;2022-12-20T05:42:32;94046.22;;;-2.09;78.63
12471;BME280;36499;46.484;13.832;2022-12-20T05:44:59;94040.75;;;-2.15;77.22
12471;BME280;36499;46.484;13.832;2022-12-20T05:47:28;94035.16;;;-2.20;77.19
12471;BME280;36499;46.484;13.832;2022-12-20T05:49:58;94034.47;;;-2.22;77.68
12471;BME280;36499;46.484;13.832;2022-12-20T05:52:25;94038.19;;;-2.26;77.48
12471;BME280;36499;46.484;13.832;2022-12-20T05:54:52;94043.50;;;-2.29;77.36
12471;BME280;36499;46.484;13.832;2022-12-20T05:57:19;94052.09;;;-2.30;77.74
12471;BME280;36499;46.484;13.832;2022-12-20T05:59:47;94050.59;;;-2.33;78.25
12471;BME280;36499;46.484;13.832;2022-12-20T06:02:14;94054.06;;;-2.34;78.15
12471;BME280;36499;46.484;13.832;2022-12-20T06:04:42;94059.06;;;-2.32;78.47
12471;BME280;36499;46.484;13.832;2022-12-20T06:07:09;94054.16;;;-2.35;78.45
12471;BME280;36499;46.484;13.832;2022-12-20T06:09:36;94061.47;;;-2.42;79.29
12471;BME280;36499;46.484;13.832;2022-12-20T06:12:04;94052.66;;;-2.38;78.47
12471;BME280;36499;46.484;13.832;2022-12-20T06:14:31;94045.03;;;-2.27;78.85
12471;BME280;36499;46.484;13.832;2022-12-20T06:16:58;94045.03;;;-2.27;78.36
12471;BME280;36499;46.484;13.832;2022-12-20T06:19:25;94048.28;;;-2.25;79.55
12471;BME280;36499;46.484;13.832;2022-12-20T06:21:53;94047.25;;;-2.22;78.93
12471;BME280;36499;46.484;13.832;2022-12-20T06:24:21;94040.03;;;-2.28;78.63
12471;BME280;36499;46.484;13.832;2022-12-20T06:26:50;94042.69;;;-2.30;79.15
12471;BME280;36499;46.484;13.832;2022-12-20T06:29:17;94042.94;;;-2.33;79.29
12471;BME280;36499;46.484;13.832;2022-12-20T06:31:45;94043.84;;;-2.34;79.89
12471;BME280;36499;46.484;13.832;2022-12-20T06:34:12;94044.22;;;-2.27;79.27
12471;BME280;36499;46.484;13.832;2022-12-20T06:36:40;94043.19;;;-2.25;78.79
12471;BME280;36499;46.484;13.832;2022-12-20T06:39:09;94044.91;;;-2.36;77.21
12471;BME280;36499;46.484;13.832;2022-12-20T06:41:36;94047.78;;;-2.41;77.01
12471;BME280;36499;46.484;13.832;2022-12-20T06:44:03;94041.75;;;-2.40;78.46
12471;BME280;36499;46.484;13.832;2022-12-20T06:48:58;94043.34;;;-2.39;78.45
12471;BME280;36499;46.484;13.832;2022-12-20T06:51:25;94034.09;;;-2.40;78.00
12471;BME280;36499;46.484;13.832;2022-12-20T06:53:52;94033.63;;;-2.45;78.24
12471;BME280;36499;46.484;13.832;2022-12-20T06:56:21;94045.47;;;-2.44;78.20
12471;BME280;36499;46.484;13.832;2022-12-20T06:58:48;94048.69;;;-2.42;77.88
12471;BME280;36499;46.484;13.832;2022-12-20T07:01:15;94051.38;;;-2.44;77.57
12471;BME280;36499;46.484;13.832;2022-12-20T07:03:42;94068.75;;;-2.49;78.07
12471;BME280;36499;46.484;13.832;2022-12-20T07:06:09;94065.44;;;-2.62;79.78
12471;BME280;36499;46.484;13.832;2022-12-20T07:08:36;94067.34;;;-2.53;80.01
12471;BME280;36499;46.484;13.832;2022-12-20T07:11:06;94064.72;;;-2.40;80.17
12471;BME280;36499;46.484;13.832;2022-12-20T07:13:34;94057.19;;;-2.30;79.85
12471;BME280;36499;46.484;13.832;2022-12-20T07:16:03;94054.44;;;-2.16;82.09
12471;BME280;36499;46.484;13.832;2022-12-20T07:18:30;94050.00;;;-1.57;85.26
12471;BME280;36499;46.484;13.832;2022-12-20T07:20:59;94049.47;;;-1.29;83.89
12471;BME280;36499;46.484;13.832;2022-12-20T07:23:26;94042.84;;;-1.09;83.42
12471;BME280;36499;46.484;13.832;2022-12-20T07:25:54;94048.53;;;-1.17;79.97
12471;BME280;36499;46.484;13.832;2022-12-20T07:28:22;94042.63;;;-1.28;79.06
12471;BME280;36499;46.484;13.832;2022-12-20T07:30:51;94044.03;;;-1.35;79.18
12471;BME280;36499;46.484;13.832;2022-12-20T07:33:19;94043.34;;;-1.37;78.37
12471;BME280;36499;46.484;13.832;2022-12-20T07:35:46;94044.72;;;-1.45;77.59
12471;BME280;36499;46.484;13.832;2022-12-20T07:38:13;94045.78;;;-1.58;77.80
12471;BME280;36499;46.484;13.832;2022-12-20T07:40:41;94044.75;;;-1.56;77.33
12471;BME280;36499;46.484;13.832;2022-12-20T07:43:08;94038.84;;;-1.56;77.74
12471;BME280;36499;46.484;13.832;2022-12-20T07:45:35;94043.25;;;-1.58;76.73
12471;BME280;36499;46.484;13.832;2022-12-20T07:48:05;94041.75;;;-1.61;77.43
12471;BME280;36499;46.484;13.832;2022-12-20T07:50:33;94035.34;;;-1.55;77.32
12471;BME280;36499;46.484;13.832;2022-12-20T07:53:03;94037.78;;;-1.54;78.00
12471;BME280;36499;46.484;13.832;2022-12-20T07:55:32;94039.75;;;-1.46;77.77
12471;BME280;36499;46.484;13.832;2022-12-20T07:58:04;94045.09;;;-1.49;77.73
12471;BME280;36499;46.484;13.832;2022-12-20T08:00:32;94046.13;;;-1.52;78.73
12471;BME280;36499;46.484;13.832;2022-12-20T08:03:05;94044.38;;;-1.40;78.71
12471;BME280;36499;46.484;13.832;2022-12-20T08:05:37;94039.25;;;-1.29;78.81
12471;BME280;36499;46.484;13.832;2022-12-20T08:08:07;94035.81;;;-1.50;77.79
12471;BME280;36499;46.484;13.832;2022-12-20T08:10:36;94030.94;;;-1.53;77.93
12471;BME280;36499;46.484;13.832;2022-12-20T08:13:06;94034.06;;;-1.38;79.03
12471;BME280;36499;46.484;13.832;2022-12-20T08:15:34;94034.53;;;-1.33;79.21
12471;BME280;36499;46.484;13.832;2022-12-20T08:18:02;94045.09;;;-1.27;77.17
12471;BME280;36499;46.484;13.832;2022-12-20T08:20:32;94039.16;;;-1.27;76.37
12471;BME280;36499;46.484;13.832;2022-12-20T08:23:02;94042.84;;;-1.20;76.81
12471;BME280;36499;46.484;13.832;2022-12-20T08:25:29;94036.56;;;-1.16;76.89
12471;BME280;36499;46.484;13.832;2022-12-20T08:27:56;94027.38;;;-1.08;77.27
12471;BME280;36499;46.484;13.832;2022-12-20T08:30:26;94021.34;;;-1.07;77.51
12471;BME280;36499;46.484;13.832;2022-12-20T08:32:54;94025.16;;;-1.12;77.09
12471;BME280;36499;46.484;13.832;2022-12-20T08:35:22;94016.22;;;-1.07;77.81
12471;BME280;36499;46.484;13.832;2022-12-20T08:37:51;94019.44;;;-1.05;77.57
12471;BME280;36499;46.484;13.832;2022-12-20T08:40:19;94015.25;;;-1.06;78.25
12471;BME280;36499;46.484;13.832;2022-12-20T08:42:46;94025.28;;;-1.14;79.33
12471;BME280;36499;46.484;13.832;2022-12-20T08:45:13;94031.28;;;-0.92;79.42
12471;BME280;36499;46.484;13.832;2022-12-20T08:47:40;94028.09;;;-0.74;79.61
12471;BME280;36499;46.484;13.832;2022-12-20T08:50:08;94035.81;;;-0.64;78.83
12471;BME280;36499;46.484;13.832;2022-12-20T08:52:35;94029.53;;;-0.60;78.11
12471;BME280;36499;46.484;13.832;2022-12-20T08:55:05;94023.94;;;-0.54;77.70
12471;BME280;36499;46.484;13.832;2022-12-20T08:57:32;94022.88;;;-0.52;77.91
12471;BME280;36499;46.484;13.832;2022-12-20T08:59:59;94025.06;;;-0.47;77.20
12471;BME280;36499;46.484;13.832;2022-12-20T09:02:27;94021.31;;;-0.43;77.94
12471;BME280;36499;46.484;13.832;2022-12-20T09:04:54;94023.81;;;-0.32;78.00
12471;BME280;36499;46.484;13.832;2022-12-20T09:07:21;94028.69;;;-0.29;77.71
12471;BME280;36499;46.484;13.832;2022-12-20T09:09:48;94021.19;;;-0.21;78.05
12471;BME280;36499;46.484;13.832;2022-12-20T09:12:17;94017.19;;;-0.14;76.92
12471;BME280;36499;46.484;13.832;2022-12-20T09:14:44;94016.81;;;-0.09;76.75
12471;BME280;36499;46.484;13.832;2022-12-20T09:17:11;94022.31;;;-0.14;77.11
12471;BME280;36499;46.484;13.832;2022-12-20T09:19:38;94025.06;;;-0.06;77.54
12471;BME280;36499;46.484;13.832;2022-12-20T09:22:05;94025.94;;;0.05;77.61
12471;BME280;36499;46.484;13.832;2022-12-20T09:24:33;94012.47;;;0.12;76.97
12471;BME280;36499;46.484;13.832;2022-12-20T09:27:00;94016.00;;;0.11;75.37
12471;BME280;36499;46.484;13.832;2022-12-20T09:29:28;94015.75;;;0.14;75.49
12471;BME280;36499;46.484;13.832;2022-12-20T09:31:55;94010.66;;;0.24;75.67
12471;BME280;36499;46.484;13.832;2022-12-20T09:34:23;94001.75;;;0.28;75.59
12471;BME280;36499;46.484;13.832;2022-12-20T09:36:50;94010.44;;;0.36;75.35
12471;BME280;36499;46.484;13.832;2022-12-20T09:39:17;94004.31;;;0.28;74.41
12471;BME280;36499;46.484;13.832;2022-12-20T09:41:44;93994.50;;;0.33;75.13
12471;BME280;36499;46.484;13.832;2022-12-20T09:44:15;93996.53;;;0.39;75.18
12471;BME280;36499;46.484;13.832;2022-12-20T09:46:52;93989.28;;;0.44;75.32
12471;BME280;36499;46.484;13.832;2022-12-20T09:49:27;93992.00;;;0.52;75.51
12471;BME280;36499;46.484;13.832;2022-12-20T09:52:20;93986.72;;;0.54;75.38
12471;BME280;36499;46.484;13.832;2022-12-20T09:55:00;93990.66;;;0.58;75.56
12471;BME280;36499;46.484;13.832;2022-12-20T09:57:47;93995.13;;;0.56;75.60
12471;BME280;36499;46.484;13.832;2022-12-20T10:00:19;93995.38;;;0.53;76.59
12471;BME280;36499;46.484;13.832;2022-12-20T10:02:48;93988.09;;;0.58;76.73
12471;BME280;36499;46.484;13.832;2022-12-20T10:05:25;93982.06;;;0.68;76.84
12471;BME280;36499;46.484;13.832;2022-12-20T10:08:05;93980.06;;;0.81;77.32
12471;BME280;36499;46.484;13.832;2022-12-20T10:10:50;93984.25;;;0.92;76.38
12471;BME280;36499;46.484;13.832;2022-12-20T10:13:42;93979.81;;;0.94;75.71
12471;BME280;36499;46.484;13.832;2022-12-20T10:16:31;93970.63;;;1.01;75.83
12471;BME280;36499;46.484;13.832;2022-12-20T10:19:20;93963.47;;;1.14;75.98
12471;BME280;36499;46.484;13.832;2022-12-20T10:22:04;93965.25;;;1.23;76.04
12471;BME280;36499;46.484;13.832;2022-12-20T10:24:34;93957.94;;;1.38;75.99
12471;BME280;36499;46.484;13.832;2022-12-20T10:27:11;93959.28;;;1.52;76.89
12471;BME280;36499;46.484;13.832;2022-12-20T10:29:41;93952.50;;;1.60;74.58
12471;BME280;36499;46.484;13.832;2022-12-20T10:32:13;93958.16;;;1.64;73.38
12471;BME280;36499;46.484;13.832;2022-12-20T10:34:51;93950.72;;;1.80;74.75
12471;BME280;36499;46.484;13.832;2022-12-20T10:37:20;93944.88;;;1.87;73.89
12471;BME280;36499;46.484;13.832;2022-12-20T10:39:50;93934.72;;;1.96;74.38
12471;BME280;36499;46.484;13.832;2022-12-20T10:42:33;93922.38;;;2.09;75.17
12471;BME280;36499;46.484;13.832;2022-12-20T10:45:03;93912.78;;;2.28;74.49
12471;BME280;36499;46.484;13.832;2022-12-20T10:47:39;93908.84;;;2.34;73.79
12471;BME280;36499;46.484;13.832;2022-12-20T10:50:16;93911.53;;;2.42;72.21
12471;BME280;36499;46.484;13.832;2022-12-20T10:53:01;93904.53;;;2.52;73.03
12471;BME280;36499;46.484;13.832;2022-12-20T10:55:35;93903.91;;;2.68;72.61
12471;BME280;36499;46.484;13.832;2022-12-20T10:58:04;93903.41;;;2.82;73.33
12471;BME280;36499;46.484;13.832;2022-12-20T11:00:33;93892.97;;;2.83;72.28
12471;BME280;36499;46.484;13.832;2022-12-20T11:03:14;93891.59;;;2.89;72.54
12471;BME280;36499;46.484;13.832;2022-12-20T11:05:54;93892.88;;;2.93;71.94
12471;BME280;36499;46.484;13.832;2022-12-20T11:08:23;93897.25;;;2.93;72.86
12471;BME280;36499;46.484;13.832;2022-12-20T11:11:12;93894.16;;;3.07;73.19
12471;BME280;36499;46.484;13.832;2022-12-20T11:13:42;93889.16;;;3.23;72.27
12471;BME280;36499;46.484;13.832;2022-12-20T11:16:35;93879.69;;;3.31;72.08
12471;BME280;36499;46.484;13.832;2022-12-20T11:19:33;93873.91;;;3.29;71.56
12471;BME280;36499;46.484;13.832;2022-12-20T11:22:24;93870.94;;;3.24;71.40
12471;BME280;36499;46.484;13.832;2022-12-20T11:25:16;93864.41;;;3.12;71.95
12471;BME280;36499;46.484;13.832;2022-12-20T11:28:10;93865.38;;;3.11;71.31
12471;BME280;36499;46.484;13.832;2022-12-20T11:30:50;93866.34;;;3.10;72.33
12471;BME280;36499;46.484;13.832;2022-12-20T11:33:40;93850.22;;;3.08;72.89
12471;BME280;36499;46.484;13.832;2022-12-20T11:36:20;93857.44;;;3.05;72.91
12471;BME280;36499;46.484;13.832;2022-12-20T11:39:02;93848.25;;;3.02;72.63
12471;BME280;36499;46.484;13.832;2022-12-20T11:41:44;93847.97;;;2.87;71.79
12471;BME280;36499;46.484;13.832;2022-12-20T11:44:24;93848.00;;;2.78;71.39
12471;BME280;36499;46.484;13.832;2022-12-20T11:47:25;93839.25;;;2.71;72.62
12471;BME280;36499;46.484;13.832;2022-12-20T11:50:15;93842.34;;;2.74;72.84
12471;BME280;36499;46.484;13.832;2022-12-20T11:52:50;93840.88;;;2.89;73.95
12471;BME280;36499;46.484;13.832;2022-12-20T11:55:26;93834.00;;;3.16;74.54
12471;BME280;36499;46.484;13.832;2022-12-20T11:57:59;93838.84;;;3.36;75.52
12471;BME280;36499;46.484;13.832;2022-12-20T12:00:29;93826.41;;;3.58;74.31
12471;BME280;36499;46.484;13.832;2022-12-20T12:03:08;93821.97;;;3.68;73.71
12471;BME280;36499;46.484;13.832;2022-12-20T12:05:42;93820.78;;;3.62;73.13
12471;BME280;36499;46.484;13.832;2022-12-20T12:08:16;93818.16;;;3.46;72.63
12471;BME280;36499;46.484;13.832;2022-12-20T12:10:56;93814.03;;;3.35;73.84
12471;BME280;36499;46.484;13.832;2022-12-20T12:13:29;93804.47;;;3.28;74.31
12471;BME280;36499;46.484;13.832;2022-12-20T12:16:02;93804.94;;;3.23;75.57
12471;BME280;36499;46.484;13.832;2022-12-20T12:18:34;93800.25;;;3.19;74.04
12471;BME280;36499;46.484;13.832;2022-12-20T12:21:08;93806.66;;;2.97;73.01
12471;BME280;36499;46.484;13.832;2022-12-20T12:24:03;93796.84;;;2.93;73.17
12471;BME280;36499;46.484;13.832;2022-12-20T12:26:36;93796.31;;;2.89;74.00
12471;BME280;36499;46.484;13.832;2022-12-20T12:29:11;93802.00;;;2.93;73.86
12471;BME280;36499;46.484;13.832;2022-12-20T12:31:44;93794.84;;;2.86;73.19
12471;BME280;36499;46.484;13.832;2022-12-20T12:34:30;93803.31;;;2.79;72.81
12471;BME280;36499;46.484;13.832;2022-12-20T12:37:49;93799.94;;;2.61;73.95
12471;BME280;36499;46.484;13.832;2022-12-20T12:40:58;93795.91;;;2.58;76.22
12471;BME280;36499;46.484;13.832;2022-12-20T12:43:48;93786.94;;;2.62;77.49
12471;BME280;36499;46.484;13.832;2022-12-20T12:46:22;93791.59;;;2.67;76.20
12471;BME280;36499;46.484;13.832;2022-12-20T12:48:59;93791.91;;;2.64;76.98
12471;BME280;36499;46.484;13.832;2022-12-20T12:51:34;93783.38;;;2.63;76.79
12471;BME280;36499;46.484;13.832;2022-12-20T12:54:16;93791.53;;;2.41;77.49
12471;BME280;36499;46.484;13.832;2022-12-20T12:56:45;93779.50;;;2.41;78.48
12471;BME280;36499;46.484;13.832;2022-12-20T12:59:41;93779.88;;;2.47;77.75
12471;BME280;36499;46.484;13.832;2022-12-20T13:02:34;93783.53;;;2.44;77.78
12471;BME280;36499;46.484;13.832;2022-12-20T13:05:34;93771.84;;;2.50;77.38
12471;BME280;36499;46.484;13.832;2022-12-20T13:08:02;93771.03;;;2.49;76.67
12471;BME280;36499;46.484;13.832;2022-12-20T13:10:59;93775.66;;;2.46;77.04
12471;BME280;36499;46.484;13.832;2022-12-20T13:13:27;93778.69;;;2.41;76.49
12471;BME280;36499;46.484;13.832;2022-12-20T13:16:28;93777.22;;;2.38;77.21
12471;BME280;36499;46.484;13.832;2022-12-20T13:19:10;93769.78;;;2.35;76.73
12471;BME280;36499;46.484;13.832;2022-12-20T13:21:43;93774.13;;;2.35;76.81
12471;BME280;36499;46.484;13.832;2022-12-20T13:24:53;93764.91;;;2.15;77.06